Time;durP1;ratioP1;P1;durP2;ratioP2;P2;SDS_P1;SDS_P2;PMS_P1;PMS_P2;Temp;Humidity;BMP_temperature;BMP_pressure;BME280_temperature;BME280_humidity;BME280_pressure;Samples;Min_cycle;Max_cycle;Signal;HPM_P1;HPM_P2
2024/03/12 00:00:06;;;;;;;6.13;3.10;;;;;;;8.09;100.00;95790.94;5036980;28;20216;-67
2024/03/12 00:02:34;;;;;;;5.67;3.13;;;;;;;7.93;100.00;95791.06;5036861;28;20282;-67
2024/03/12 00:05:05;;;;;;;5.47;2.53;;;;;;;7.86;100.00;95796.13;5036564;28;20221;-67
2024/03/12 00:07:33;;;;;;;5.30;2.53;;;;;;;8.00;100.00;95797.22;5037003;28;20617;-67
2024/03/12 00:10:00;;;;;;;4.50;2.83;;;;;;;7.93;100.00;95796.31;5036419;28;20212;-67
2024/03/12 00:12:26;;;;;;;5.20;2.80;;;;;;;7.94;100.00;95792.66;5036945;28;20209;-67
2024/03/12 00:14:53;;;;;;;5.90;2.70;;;;;;;7.91;100.00;95796.44;5036043;28;20752;-67
2024/03/12 00:17:20;;;;;;;5.73;3.10;;;;;;;7.93;100.00;95793.69;5035605;28;20225;-67
2024/03/12 00:19:48;;;;;;;4.73;2.57;;;;;;;7.94;100.00;95797.91;5036358;28;20202;-67
2024/03/12 00:22:16;;;;;;;4.40;2.50;;;;;;;7.94;100.00;95793.50;5036132;28;20730;-67
2024/03/12 00:24:44;;;;;;;3.77;2.60;;;;;;;8.11;100.00;95795.03;5035938;28;20232;-67
2024/03/12 00:27:11;;;;;;;5.50;2.63;;;;;;;8.00;100.00;95789.38;5036160;28;20660;-67
2024/03/12 00:29:39;;;;;;;6.73;2.40;;;;;;;7.97;100.00;95793.16;5035898;28;20244;-67
2024/03/12 00:32:07;;;;;;;4.50;2.37;;;;;;;7.98;100.00;95793.94;5036080;28;21329;-67
2024/03/12 00:34:34;;;;;;;5.33;2.67;;;;;;;7.76;100.00;95799.97;5036311;28;20546;-67
2024/03/12 00:37:01;;;;;;;4.43;2.67;;;;;;;7.81;100.00;95808.13;5035609;28;20594;-67
2024/03/12 00:39:28;;;;;;;6.20;2.60;;;;;;;7.80;100.00;95809.13;5035760;28;20208;-67
2024/03/12 00:41:56;;;;;;;4.33;2.80;;;;;;;7.99;100.00;95813.97;5036109;28;20205;-67
2024/03/12 00:44:23;;;;;;;6.03;2.50;;;;;;;7.77;100.00;95814.72;5035930;28;20228;-67
2024/03/12 00:46:50;;;;;;;7.73;3.07;;;;;;;7.76;100.00;95815.69;5034902;28;20259;-67
2024/03/12 00:49:16;;;;;;;3.70;2.20;;;;;;;7.86;100.00;95822.38;5036320;28;20217;-67
2024/03/12 00:51:43;;;;;;;5.43;2.90;;;;;;;7.76;100.00;95822.75;5035846;28;20210;-67
2024/03/12 00:54:10;;;;;;;4.63;2.60;;;;;;;7.70;100.00;95829.50;5035560;28;20723;-67
2024/03/12 00:56:37;;;;;;;9.50;2.70;;;;;;;7.78;100.00;95820.75;5034467;28;20262;-67
2024/03/12 00:59:05;;;;;;;5.50;1.90;;;;;;;7.76;100.00;95826.19;5036102;28;20228;-67
2024/03/12 01:01:32;;;;;;;3.87;2.47;;;;;;;7.76;100.00;95823.56;5035671;28;20205;-67
2024/03/12 01:03:59;;;;;;;4.17;1.93;;;;;;;7.73;100.00;95823.91;5035683;28;20228;-67
2024/03/12 01:06:28;;;;;;;4.07;2.43;;;;;;;7.77;100.00;95825.22;5035610;28;20678;-67
2024/03/12 01:08:55;;;;;;;6.10;2.33;;;;;;;7.77;100.00;95830.44;5036280;28;20671;-67
2024/03/12 01:11:22;;;;;;;4.23;2.13;;;;;;;7.79;100.00;95831.13;5035003;28;20205;-67
2024/03/12 01:13:50;;;;;;;2.83;2.13;;;;;;;7.82;100.00;95833.38;5036211;28;20220;-68
2024/03/12 01:16:18;;;;;;;6.50;2.47;;;;;;;7.94;100.00;95834.63;5035213;28;20287;-67
2024/03/12 01:18:46;;;;;;;4.13;2.37;;;;;;;7.85;100.00;95846.16;5035591;28;20225;-67
2024/03/12 01:21:13;;;;;;;3.40;2.20;;;;;;;7.88;100.00;95851.06;5034690;28;20211;-67
2024/03/12 01:23:39;;;;;;;3.27;2.23;;;;;;;7.86;100.00;95847.78;5035369;28;20648;-67
2024/03/12 01:26:06;;;;;;;3.40;2.40;;;;;;;7.84;100.00;95847.16;5034831;28;20219;-67
2024/03/12 01:28:34;;;;;;;7.70;2.33;;;;;;;7.80;100.00;95842.41;5035513;28;20750;-67
2024/03/12 01:31:01;;;;;;;4.67;2.40;;;;;;;7.68;100.00;95844.56;5035518;28;20618;-67
2024/03/12 01:33:29;;;;;;;3.97;2.43;;;;;;;7.97;100.00;95839.56;5035008;28;20731;-67
2024/03/12 01:36:05;;;;;;;2.47;1.93;;;;;;;7.70;100.00;95845.25;5038988;28;20212;-68
2024/03/12 01:38:34;;;;;;;3.53;2.17;;;;;;;7.74;100.00;95841.28;5039284;28;20228;-67
2024/03/12 01:41:01;;;;;;;4.83;2.50;;;;;;;7.81;100.00;95837.00;5039511;28;20327;-67
2024/03/12 01:43:28;;;;;;;2.33;1.90;;;;;;;7.94;100.00;95855.63;5038944;28;20205;-67
2024/03/12 01:45:55;;;;;;;7.47;2.30;;;;;;;8.09;100.00;95851.31;5039223;28;20219;-67
2024/03/12 01:48:22;;;;;;;8.60;2.03;;;;;;;8.07;100.00;95848.03;5039216;28;20211;-67
2024/03/12 01:50:50;;;;;;;8.97;2.27;;;;;;;8.15;100.00;95846.22;5038583;28;20201;-67
2024/03/12 01:53:17;;;;;;;6.27;2.57;;;;;;;7.90;100.00;95851.72;5039292;28;20207;-67
2024/03/12 01:55:43;;;;;;;3.23;2.13;;;;;;;7.74;100.00;95849.16;5038658;28;20209;-67
2024/03/12 01:58:10;;;;;;;5.03;2.43;;;;;;;7.61;100.00;95859.38;5038660;28;20398;-67
2024/03/12 02:00:38;;;;;;;3.67;2.30;;;;;;;7.56;100.00;95859.03;5039020;28;20205;-67
2024/03/12 02:03:04;;;;;;;2.73;1.93;;;;;;;7.86;100.00;95871.41;5039174;28;20209;-67
2024/03/12 02:05:31;;;;;;;3.07;1.97;;;;;;;7.80;100.00;95866.81;5038295;28;20229;-68
2024/03/12 02:07:59;;;;;;;4.47;2.17;;;;;;;7.90;100.00;95872.69;5039315;28;20229;-67
2024/03/12 02:10:26;;;;;;;5.90;2.73;;;;;;;7.71;100.00;95880.94;5039299;28;20232;-67
2024/03/12 02:12:53;;;;;;;2.77;2.20;;;;;;;7.76;100.00;95878.63;5038417;28;20212;-68
2024/03/12 02:15:21;;;;;;;4.43;2.30;;;;;;;7.57;100.00;95884.25;5038441;28;20261;-67
2024/03/12 02:17:48;;;;;;;4.00;2.10;;;;;;;7.80;100.00;95887.00;5039077;28;20229;-67
2024/03/12 02:20:15;;;;;;;3.53;2.33;;;;;;;7.68;100.00;95890.97;5038492;28;20201;-67
2024/03/12 02:22:41;;;;;;;4.70;2.60;;;;;;;7.84;100.00;95891.75;5038559;28;20374;-67
2024/03/12 02:25:10;;;;;;;3.93;2.00;;;;;;;8.07;100.00;95892.63;5039364;28;20224;-67
2024/03/12 02:27:37;;;;;;;7.13;2.30;;;;;;;7.93;100.00;95896.78;5038707;28;20197;-67
2024/03/12 02:30:04;;;;;;;3.07;1.97;;;;;;;8.09;100.00;95898.53;5038198;28;20209;-67
2024/03/12 02:32:32;;;;;;;3.60;2.27;;;;;;;8.03;100.00;95891.31;5037989;28;20490;-67
2024/03/12 02:34:59;;;;;;;2.40;1.80;;;;;;;8.09;100.00;95896.72;5038114;28;20233;-67
2024/03/12 02:37:25;;;;;;;3.10;2.00;;;;;;;8.01;100.00;95903.81;5038151;28;20205;-67
2024/03/12 02:39:52;;;;;;;2.93;1.80;;;;;;;8.07;100.00;95895.25;5038680;28;20209;-67
2024/03/12 02:42:20;;;;;;;2.77;1.90;;;;;;;8.19;100.00;95907.06;5038608;28;20668;-67
2024/03/12 02:44:46;;;;;;;3.90;2.10;;;;;;;7.87;100.00;95901.91;5037453;28;20260;-67
2024/03/12 02:47:13;;;;;;;5.30;2.20;;;;;;;8.06;100.00;95904.94;5037845;28;20684;-67
2024/03/12 02:49:39;;;;;;;3.87;1.80;;;;;;;7.94;100.00;95908.09;5037824;28;20204;-67
2024/03/12 02:52:06;;;;;;;4.57;2.60;;;;;;;8.05;100.00;95910.34;5038374;28;20559;-67
2024/03/12 02:54:33;;;;;;;4.20;1.90;;;;;;;8.07;100.00;95911.00;5038133;28;20595;-67
2024/03/12 02:56:59;;;;;;;3.27;2.00;;;;;;;8.10;100.00;95914.09;5037490;28;20216;-67
2024/03/12 02:59:28;;;;;;;3.87;1.90;;;;;;;8.21;100.00;95916.41;5037919;28;20221;-67
2024/03/12 03:01:55;;;;;;;2.53;2.03;;;;;;;8.17;100.00;95917.72;5037574;28;20715;-68
2024/03/12 03:04:22;;;;;;;4.20;2.10;;;;;;;8.02;100.00;95927.25;5037979;28;20730;-67
2024/03/12 03:06:50;;;;;;;3.23;2.00;;;;;;;8.05;100.00;95923.47;5036615;28;20945;-67
2024/03/12 03:09:17;;;;;;;3.77;1.97;;;;;;;8.10;100.00;95918.53;5037545;28;21111;-67
2024/03/12 03:11:45;;;;;;;2.63;1.77;;;;;;;8.23;100.00;95922.28;5037761;28;20478;-67
2024/03/12 03:14:11;;;;;;;3.83;1.93;;;;;;;8.07;100.00;95924.09;5037682;28;20220;-67
2024/03/12 03:16:39;;;;;;;4.33;2.77;;;;;;;8.24;100.00;95928.38;5036351;28;20871;-67
2024/03/12 03:19:05;;;;;;;3.00;1.93;;;;;;;8.19;100.00;95922.81;5035443;28;20699;-67
2024/03/12 03:21:31;;;;;;;3.30;2.10;;;;;;;8.15;100.00;95926.75;5037771;28;20204;-67
2024/03/12 03:23:58;;;;;;;2.60;1.77;;;;;;;8.06;100.00;95933.00;5036913;28;20742;-67
2024/03/12 03:26:25;;;;;;;2.43;1.50;;;;;;;8.18;100.00;95935.09;5037388;28;20475;-67
2024/03/12 03:28:51;;;;;;;3.27;1.53;;;;;;;8.20;100.00;95940.19;5037373;28;20667;-67
2024/03/12 03:31:18;;;;;;;5.53;1.73;;;;;;;8.22;100.00;95938.22;5036905;28;20587;-67
2024/03/12 03:33:47;;;;;;;2.67;2.00;;;;;;;8.16;100.00;95931.00;5037370;28;20224;-67
2024/03/12 03:36:14;;;;;;;4.33;1.67;;;;;;;8.08;100.00;95936.25;5037599;28;20803;-67
2024/03/12 03:38:41;;;;;;;3.70;2.00;;;;;;;8.01;100.00;95930.88;5037196;28;20217;-67
2024/03/12 03:41:08;;;;;;;3.37;1.87;;;;;;;7.93;100.00;95935.34;5036956;28;20208;-67
2024/03/12 03:43:35;;;;;;;3.90;1.80;;;;;;;8.05;100.00;95933.97;5037446;28;20273;-67
2024/03/12 03:46:03;;;;;;;2.80;1.70;;;;;;;8.11;100.00;95939.38;5037055;28;20203;-67
2024/03/12 03:48:29;;;;;;;3.37;2.30;;;;;;;8.11;100.00;95944.63;5037401;28;20197;-67
2024/03/12 03:50:57;;;;;;;3.57;1.90;;;;;;;8.36;100.00;95946.19;5036605;28;20205;-67
2024/03/12 03:53:24;;;;;;;4.33;1.90;;;;;;;8.00;100.00;95954.66;5036845;28;20208;-67
2024/03/12 03:55:50;;;;;;;3.33;1.80;;;;;;;8.23;100.00;95948.53;5036554;28;20209;-67
2024/03/12 03:58:18;;;;;;;2.67;1.83;;;;;;;8.26;100.00;95952.63;5035359;28;20236;-67
2024/03/12 04:00:44;;;;;;;2.60;2.03;;;;;;;8.18;100.00;95953.47;5037135;28;20209;-67
2024/03/12 04:03:11;;;;;;;4.07;1.93;;;;;;;8.03;100.00;95952.50;5037385;28;20201;-67
2024/03/12 04:05:38;;;;;;;3.87;2.30;;;;;;;8.20;100.00;95958.56;5035514;28;20738;-66
2024/03/12 04:08:07;;;;;;;2.83;1.80;;;;;;;8.21;100.00;95958.41;5036540;28;20228;-67
2024/03/12 04:10:34;;;;;;;8.63;3.03;;;;;;;8.03;100.00;95959.53;5036757;28;20205;-67
2024/03/12 04:13:00;;;;;;;3.30;2.00;;;;;;;8.03;100.00;95970.03;5036606;28;20208;-67
2024/03/12 04:15:28;;;;;;;3.30;1.80;;;;;;;7.92;100.00;95973.84;5036063;28;20400;-66
2024/03/12 04:17:55;;;;;;;3.73;2.07;;;;;;;8.02;100.00;95971.84;5036548;28;20211;-66
2024/03/12 04:20:21;;;;;;;3.47;1.87;;;;;;;7.82;100.00;95980.25;5036432;28;20193;-67
2024/03/12 04:22:48;;;;;;;2.47;1.70;;;;;;;8.04;100.00;95976.94;5036017;28;20208;-66
2024/03/12 04:25:17;;;;;;;4.50;2.17;;;;;;;8.20;100.00;95977.75;5035900;28;20228;-67
2024/03/12 04:27:44;;;;;;;3.57;2.53;;;;;;;7.76;100.00;95991.41;5036125;28;20205;-67
2024/03/12 04:30:13;;;;;;;2.97;2.03;;;;;;;7.94;100.00;96002.53;5036185;28;20652;-66
2024/03/12 04:32:40;;;;;;;3.60;1.70;;;;;;;7.66;100.00;96009.16;5035979;28;20679;-67
2024/03/12 04:35:09;;;;;;;3.30;2.00;;;;;;;7.60;100.00;96009.78;5035966;28;20713;-67
2024/03/12 04:37:36;;;;;;;3.43;1.93;;;;;;;7.59;100.00;96013.38;5037470;28;20224;-66
2024/03/12 04:40:07;;;;;;;2.63;1.60;;;;;;;7.33;100.00;96017.97;5037416;28;20338;-67
2024/03/12 04:42:35;;;;;;;3.37;1.77;;;;;;;7.48;100.00;96015.53;5037443;28;20205;-66
2024/03/12 04:45:04;;;;;;;5.43;2.43;;;;;;;7.20;100.00;96016.81;5035706;28;20223;-66
2024/03/12 04:47:31;;;;;;;3.60;1.80;;;;;;;7.25;100.00;96018.94;5037050;28;20203;-67
2024/03/12 04:50:22;;;;;;;2.83;1.70;;;;;;;7.47;100.00;96027.81;5034577;28;20208;-67
2024/03/12 04:52:49;;;;;;;2.67;1.90;;;;;;;7.17;100.00;96026.81;5037097;28;20296;-66
2024/03/12 04:55:16;;;;;;;3.03;1.80;;;;;;;7.05;100.00;96036.78;5036471;28;20216;-66
2024/03/12 04:57:44;;;;;;;3.00;1.87;;;;;;;7.09;100.00;96030.22;5037772;28;20205;-67
2024/03/12 05:00:14;;;;;;;5.77;2.03;;;;;;;7.13;100.00;96038.56;5037076;28;20689;-66
2024/03/12 05:02:41;;;;;;;4.43;2.10;;;;;;;7.17;100.00;96037.28;5037124;28;20207;-67
2024/03/12 05:05:08;;;;;;;3.83;1.93;;;;;;;7.13;100.00;96046.44;5035374;28;20217;-67
2024/03/12 05:07:35;;;;;;;4.17;2.30;;;;;;;7.08;100.00;96051.34;5037522;28;20250;-66
2024/03/12 05:10:01;;;;;;;6.50;2.77;;;;;;;7.09;100.00;96055.59;5035936;28;20205;-67
2024/03/12 05:12:28;;;;;;;5.33;2.90;;;;;;;7.09;100.00;96061.66;5037055;28;21085;-66
2024/03/12 05:14:56;;;;;;;3.83;2.47;;;;;;;7.30;100.00;96062.84;5036139;28;20347;-67
2024/03/12 05:17:22;;;;;;;3.37;2.10;;;;;;;7.20;100.00;96056.09;5037224;28;20584;-67
2024/03/12 05:19:49;;;;;;;3.90;2.27;;;;;;;7.13;100.00;96062.16;5036861;28;20220;-67
2024/03/12 05:22:16;;;;;;;4.40;2.23;;;;;;;7.12;100.00;96065.78;5037660;28;20205;-67
2024/03/12 05:24:42;;;;;;;3.90;2.23;;;;;;;7.12;100.00;96066.56;5036125;28;20229;-67
2024/03/12 05:27:10;;;;;;;4.33;2.50;;;;;;;7.02;100.00;96070.31;5035853;28;20213;-66
2024/03/12 05:29:42;;;;;;;6.33;3.00;;;;;;;7.08;100.00;96075.75;5037591;28;20213;-67
2024/03/12 05:32:18;;;;;;;4.07;2.63;;;;;;;7.41;100.00;96073.03;5037631;28;20319;-66
2024/03/12 05:34:45;;;;;;;5.93;2.93;;;;;;;7.41;100.00;96075.66;5035410;28;20582;-66
2024/03/12 05:37:28;;;;;;;6.53;3.37;;;;;;;7.31;100.00;96076.78;5036023;28;20204;-66
2024/03/12 05:40:11;;;;;;;4.20;2.60;;;;;;;7.33;100.00;96085.28;5036962;28;20319;-67
2024/03/12 05:48:10;;;;;;;15.27;6.73;;;;;;;7.63;100.00;96076.81;5036464;28;20274;-67
2024/03/12 05:50:38;;;;;;;7.97;3.07;;;;;;;7.29;100.00;96079.56;5036257;28;20284;-67
2024/03/12 05:53:05;;;;;;;7.00;2.70;;;;;;;7.26;100.00;96083.50;5037081;28;20198;-66
2024/03/12 05:55:31;;;;;;;8.77;3.30;;;;;;;7.32;100.00;96089.72;5035938;28;20221;-67
2024/03/12 05:57:58;;;;;;;8.10;3.27;;;;;;;7.20;100.00;96082.31;5036064;28;20223;-67
2024/03/12 06:00:24;;;;;;;9.50;3.47;;;;;;;7.28;100.00;96077.91;5035426;28;20220;-67
2024/03/12 06:02:51;;;;;;;7.73;3.37;;;;;;;7.50;100.00;96077.28;5036817;28;20197;-67
2024/03/12 06:05:19;;;;;;;8.37;3.93;;;;;;;7.19;100.00;96074.63;5034653;28;20592;-67
2024/03/12 06:07:48;;;;;;;5.13;2.80;;;;;;;7.07;100.00;96074.09;5035084;28;20205;-66
2024/03/12 06:10:16;;;;;;;8.60;3.10;;;;;;;7.40;100.00;96081.06;5035802;28;20206;-67
2024/03/12 06:12:42;;;;;;;6.40;3.00;;;;;;;7.24;100.00;96077.56;5035539;28;20201;-67
2024/03/12 06:15:09;;;;;;;9.60;3.70;;;;;;;7.34;100.00;96079.06;5034919;28;20221;-67
2024/03/12 06:17:37;;;;;;;6.13;2.97;;;;;;;7.48;100.00;96071.38;5035698;28;20229;-67
2024/03/12 06:20:05;;;;;;;8.83;3.30;;;;;;;7.54;100.00;96078.59;5036214;28;20225;-66
2024/03/12 06:22:33;;;;;;;5.60;2.80;;;;;;;7.76;100.00;96075.34;5039141;28;20211;-67
2024/03/12 06:25:00;;;;;;;6.77;2.80;;;;;;;7.25;100.00;96077.41;5038181;28;20225;-67
2024/03/12 06:27:26;;;;;;;7.13;2.93;;;;;;;7.31;100.00;96074.97;5038529;28;20205;-67
2024/03/12 06:29:53;;;;;;;6.77;3.03;;;;;;;7.25;100.00;96079.22;5038760;28;20201;-67
2024/03/12 06:32:20;;;;;;;6.77;3.30;;;;;;;7.44;100.00;96083.16;5039565;28;20264;-67
2024/03/12 06:34:48;;;;;;;4.63;2.77;;;;;;;7.54;100.00;96088.28;5038058;28;20264;-67
2024/03/12 06:37:15;;;;;;;5.60;3.40;;;;;;;7.68;100.00;96090.28;5038432;28;20259;-67
2024/03/12 06:39:44;;;;;;;5.73;3.07;;;;;;;7.73;100.00;96088.78;5038558;28;20311;-67
2024/03/12 06:42:12;;;;;;;8.60;3.20;;;;;;;7.60;100.00;96103.34;5038546;28;20197;-67
2024/03/12 06:44:40;;;;;;;6.77;3.27;;;;;;;7.61;100.00;96097.13;5038664;28;20220;-68
2024/03/12 06:47:07;;;;;;;6.27;3.50;;;;;;;7.70;100.00;96101.41;5037996;28;20209;-68
2024/03/12 06:49:34;;;;;;;7.13;3.57;;;;;;;7.73;100.00;96104.53;5039033;28;20197;-67
2024/03/12 06:52:02;;;;;;;10.90;3.80;;;;;;;7.88;100.00;96111.56;5038334;28;20259;-67
2024/03/12 06:54:28;;;;;;;8.80;3.57;;;;;;;7.72;100.00;96118.59;5037965;28;20217;-67
2024/03/12 06:56:56;;;;;;;9.67;3.90;;;;;;;7.84;100.00;96119.94;5038057;28;20209;-67
2024/03/12 06:59:24;;;;;;;11.10;3.77;;;;;;;7.85;100.00;96121.56;5038643;28;20217;-68
2024/03/12 07:01:53;;;;;;;8.03;3.10;;;;;;;7.71;100.00;96129.28;5038267;28;20225;-67
2024/03/12 07:04:23;;;;;;;6.10;3.40;;;;;;;7.67;100.00;96131.38;5038156;28;20291;-67
2024/03/12 07:06:50;;;;;;;6.17;3.13;;;;;;;7.86;100.00;96131.09;5037302;28;20197;-67
2024/03/12 07:09:26;;;;;;;6.53;3.10;;;;;;;7.61;100.00;96137.31;5038306;28;20288;-67
2024/03/12 07:11:54;;;;;;;5.23;3.23;;;;;;;7.85;100.00;96139.94;5037903;28;20222;-67
2024/03/12 07:14:27;;;;;;;7.27;3.33;;;;;;;7.98;100.00;96135.84;5038198;28;20239;-67
2024/03/12 07:16:54;;;;;;;6.50;3.37;;;;;;;7.94;100.00;96133.72;5037497;28;20559;-68
2024/03/12 07:19:22;;;;;;;8.43;2.73;;;;;;;7.97;100.00;96128.16;5037666;28;21350;-68
2024/03/12 07:21:49;;;;;;;6.23;3.23;;;;;;;8.07;100.00;96128.78;5037512;28;20209;-67
2024/03/12 07:24:16;;;;;;;5.10;3.10;;;;;;;8.21;100.00;96136.03;5038459;28;20221;-68
2024/03/12 07:26:46;;;;;;;4.53;2.87;;;;;;;8.30;100.00;96135.88;5037537;28;20200;-68
2024/03/12 07:29:13;;;;;;;8.63;3.40;;;;;;;7.99;100.00;96147.16;5037753;28;20205;-68
2024/03/12 07:31:41;;;;;;;5.63;3.00;;;;;;;8.28;100.00;96137.03;5035842;28;20282;-68
2024/03/12 07:34:07;;;;;;;5.60;2.90;;;;;;;8.12;100.00;96142.25;5036527;28;20229;-68
2024/03/12 07:36:34;;;;;;;5.77;3.10;;;;;;;8.08;100.00;96146.19;5036966;28;20664;-68
2024/03/12 07:39:08;;;;;;;6.30;3.27;;;;;;;7.90;100.00;96142.88;5037757;28;20205;-67
2024/03/12 07:41:35;;;;;;;6.90;3.43;;;;;;;8.10;100.00;96141.59;5038075;28;20387;-68
2024/03/12 07:44:01;;;;;;;5.63;3.13;;;;;;;8.10;100.00;96141.59;5037419;28;20221;-68
2024/03/12 07:46:28;;;;;;;6.37;2.97;;;;;;;8.16;100.00;96146.19;5036383;28;20212;-67
2024/03/12 07:48:56;;;;;;;4.97;2.40;;;;;;;8.08;100.00;96147.00;5038827;28;20232;-68
2024/03/12 07:51:22;;;;;;;3.77;2.40;;;;;;;8.13;100.00;96149.13;5037697;28;20215;-68
2024/03/12 07:53:49;;;;;;;7.57;2.77;;;;;;;8.11;100.00;96156.38;5037177;28;20220;-68
2024/03/12 07:56:18;;;;;;;3.70;2.40;;;;;;;8.19;100.00;96154.56;5037369;28;20205;-67
2024/03/12 07:58:46;;;;;;;4.43;2.40;;;;;;;7.94;100.00;96165.19;5037915;28;20225;-67
2024/03/12 08:01:14;;;;;;;3.70;2.57;;;;;;;8.34;100.00;96165.22;5037130;28;20236;-68
2024/03/12 08:03:41;;;;;;;3.70;2.00;;;;;;;8.01;100.00;96171.44;5037119;28;20812;-68
2024/03/12 08:06:09;;;;;;;2.63;1.80;;;;;;;8.22;100.00;96171.81;5036818;28;20209;-67
2024/03/12 08:08:36;;;;;;;6.93;2.77;;;;;;;8.31;100.00;96173.44;5037600;28;20210;-67
2024/03/12 08:11:04;;;;;;;5.27;2.63;;;;;;;7.92;100.00;96172.41;5037675;28;20198;-69
2024/03/12 08:13:31;;;;;;;4.47;2.10;;;;;;;8.09;100.00;96174.06;5037925;28;20303;-68
2024/03/12 08:15:58;;;;;;;6.70;2.90;;;;;;;8.04;100.00;96178.97;5036709;28;20203;-68
2024/03/12 08:18:25;;;;;;;6.33;2.50;;;;;;;8.28;100.00;96168.53;5037231;28;20209;-67
2024/03/12 08:20:52;;;;;;;5.47;2.77;;;;;;;8.27;100.00;96174.75;5037045;28;20623;-67
2024/03/12 08:23:20;;;;;;;5.93;3.07;;;;;;;8.55;100.00;96182.13;5036528;28;20323;-67
2024/03/12 08:25:47;;;;;;;6.43;3.20;;;;;;;8.18;100.00;96176.56;5035976;28;20213;-68
2024/03/12 08:28:14;;;;;;;13.40;3.50;;;;;;;8.38;100.00;96175.25;5037177;28;20271;-68
2024/03/12 08:30:40;;;;;;;4.87;2.33;;;;;;;8.34;100.00;96179.19;5036724;28;20201;-67
2024/03/12 08:33:07;;;;;;;4.63;2.50;;;;;;;8.48;100.00;96181.97;5036427;28;20871;-68
2024/03/12 08:35:33;;;;;;;2.23;1.80;;;;;;;8.36;100.00;96181.66;5035422;28;20603;-67
2024/03/12 08:38:00;;;;;;;4.53;2.40;;;;;;;8.36;100.00;96182.44;5036388;28;20648;-67
2024/03/12 08:40:27;;;;;;;5.27;2.37;;;;;;;8.64;100.00;96181.97;5036297;28;20221;-68
2024/03/12 08:42:55;;;;;;;3.87;2.60;;;;;;;8.20;100.00;96182.47;5035754;28;20205;-67
2024/03/12 08:45:23;;;;;;;6.00;2.80;;;;;;;8.45;100.00;96186.72;5035678;28;20217;-67
2024/03/12 08:47:49;;;;;;;6.20;2.17;;;;;;;8.44;100.00;96179.84;5036400;28;20209;-68
2024/03/12 08:50:17;;;;;;;4.07;2.60;;;;;;;8.53;100.00;96179.66;5036847;28;20759;-68
2024/03/12 08:52:43;;;;;;;6.10;2.53;;;;;;;8.43;100.00;96178.19;5036560;28;20287;-67
2024/03/12 08:55:10;;;;;;;4.63;2.30;;;;;;;8.43;100.00;96180.81;5035345;28;20224;-68
2024/03/12 08:57:38;;;;;;;4.70;2.73;;;;;;;8.59;100.00;96183.41;5036310;28;20216;-68
2024/03/12 09:00:11;;;;;;;6.47;2.47;;;;;;;8.62;100.00;96178.66;5035725;28;20255;-67
2024/03/12 09:02:38;;;;;;;5.33;2.63;;;;;;;8.94;100.00;96178.59;5037343;28;20687;-68
2024/03/12 09:05:07;;;;;;;4.07;2.10;;;;;;;8.91;100.00;96188.63;5035414;28;20347;-67
2024/03/12 09:07:33;;;;;;;4.90;2.40;;;;;;;9.21;100.00;96188.69;5035894;28;20201;-68
2024/03/12 09:10:00;;;;;;;4.27;2.10;;;;;;;8.80;100.00;96181.91;5036282;28;20675;-68
2024/03/12 09:12:27;;;;;;;3.13;2.27;;;;;;;9.09;100.00;96190.06;5036544;28;20212;-68
2024/03/12 09:14:55;;;;;;;4.97;3.00;;;;;;;9.28;100.00;96182.59;5035207;28;20220;-67
2024/03/12 09:17:22;;;;;;;4.10;1.93;;;;;;;9.18;100.00;96181.97;5035956;28;20200;-67
2024/03/12 09:19:49;;;;;;;2.73;1.63;;;;;;;9.00;100.00;96191.06;5036219;28;20236;-67
2024/03/12 09:22:15;;;;;;;3.17;2.30;;;;;;;9.48;100.00;96181.22;5036041;28;20624;-67
2024/03/12 09:24:42;;;;;;;10.53;2.67;;;;;;;9.75;100.00;96192.06;5035750;28;20714;-67
2024/03/12 09:27:09;;;;;;;5.00;2.17;;;;;;;9.43;100.00;96190.56;5035621;28;20567;-67
2024/03/12 09:29:35;;;;;;;3.40;2.23;;;;;;;9.49;100.00;96189.91;5036753;28;20197;-67
2024/03/12 09:32:05;;;;;;;5.10;2.17;;;;;;;9.54;100.00;96192.84;5036531;28;20212;-67
2024/03/12 09:34:33;;;;;;;5.90;2.20;;;;;;;9.45;100.00;96193.88;5036102;28;21306;-67
2024/03/12 09:37:00;;;;;;;5.60;2.67;;;;;;;9.74;100.00;96185.16;5035725;28;20852;-67
2024/03/12 09:39:27;;;;;;;4.60;2.17;;;;;;;9.53;100.00;96193.81;5036002;28;20700;-67
2024/03/12 09:41:55;;;;;;;3.47;2.60;;;;;;;9.91;100.00;96207.75;5036790;28;20216;-67
2024/03/12 09:44:22;;;;;;;4.53;2.63;;;;;;;9.82;100.00;96202.72;5035816;28;20216;-67
2024/03/12 09:46:49;;;;;;;4.50;2.20;;;;;;;10.11;100.00;96208.19;5036093;28;20211;-68
2024/03/12 09:49:19;;;;;;;5.53;3.13;;;;;;;10.18;100.00;96207.28;5036408;28;20608;-67
2024/03/12 09:51:45;;;;;;;4.27;2.60;;;;;;;10.01;100.00;96199.69;5036079;28;20386;-68
2024/03/12 09:54:12;;;;;;;7.23;3.00;;;;;;;10.35;100.00;96201.72;5036657;28;20229;-67
2024/03/12 09:56:40;;;;;;;4.03;2.43;;;;;;;10.44;100.00;96207.75;5039625;28;20233;-68
2024/03/12 09:59:08;;;;;;;4.40;2.37;;;;;;;10.20;100.00;96212.38;5040014;28;20205;-67
2024/03/12 10:01:34;;;;;;;3.00;2.10;;;;;;;10.77;100.00;96211.75;5040228;28;20217;-67
2024/03/12 10:04:01;;;;;;;5.17;3.10;;;;;;;10.52;100.00;96216.41;5040055;28;20221;-66
2024/03/12 10:06:29;;;;;;;2.40;1.73;;;;;;;10.71;100.00;96209.84;5039316;28;20201;-68
2024/03/12 10:08:57;;;;;;;2.90;1.87;;;;;;;11.13;100.00;96214.34;5040256;28;20973;-68
2024/03/12 10:11:24;;;;;;;3.90;2.27;;;;;;;10.91;100.00;96213.59;5040153;28;20210;-66
2024/03/12 10:13:56;;;;;;;4.13;2.00;;;;;;;10.97;100.00;96205.78;5040961;28;20229;-68
2024/03/12 10:16:24;;;;;;;3.10;1.93;;;;;;;10.35;100.00;96214.09;5038752;28;20204;-67
2024/03/12 10:19:06;;;;;;;5.30;1.90;;;;;;;11.03;100.00;96215.59;5039777;28;20205;-67
2024/03/12 10:21:34;;;;;;;2.20;1.23;;;;;;;11.10;100.00;96209.44;5039959;28;20230;-67
2024/03/12 10:24:11;;;;;;;3.30;1.63;;;;;;;11.15;100.00;96208.88;5037463;28;20332;-66
2024/03/12 10:26:39;;;;;;;2.30;1.57;;;;;;;10.86;100.00;96211.50;5038547;28;20204;-68
2024/03/12 10:29:09;;;;;;;4.30;2.07;;;;;;;11.12;100.00;96220.59;5039057;28;20216;-67
2024/03/12 10:31:39;;;;;;;2.67;1.60;;;;;;;10.93;100.00;96218.53;5038286;28;20201;-67
2024/03/12 10:34:09;;;;;;;5.00;2.03;;;;;;;11.13;100.00;96219.63;5038631;28;20236;-67
2024/03/12 10:36:39;;;;;;;2.63;1.67;;;;;;;10.86;100.00;96223.84;5038702;28;20212;-68
2024/03/12 10:39:12;;;;;;;3.77;2.03;;;;;;;10.56;100.00;96225.59;5038822;28;20290;-67
2024/03/12 10:41:39;;;;;;;4.97;1.40;;;;;;;10.75;100.00;96224.28;5037838;28;20224;-67
2024/03/12 10:44:10;;;;;;;2.60;1.93;;;;;;;10.45;100.00;96227.81;5039001;28;20225;-67
2024/03/12 10:46:40;;;;;;;2.50;1.53;;;;;;;10.60;100.00;96220.78;5038246;28;20205;-67
2024/03/12 10:49:10;;;;;;;3.90;1.80;;;;;;;10.55;100.00;96223.97;5038134;28;20216;-66
2024/03/12 10:51:41;;;;;;;2.53;1.50;;;;;;;10.34;100.00;96220.34;5038261;28;20208;-67
2024/03/12 10:54:13;;;;;;;3.87;2.17;;;;;;;10.59;100.00;96227.88;5038714;28;20225;-68
2024/03/12 10:56:41;;;;;;;4.13;2.30;;;;;;;10.42;100.00;96234.28;5039002;28;20241;-68
2024/03/12 10:59:09;;;;;;;4.33;2.23;;;;;;;10.51;100.00;96227.13;5039463;28;20212;-67
2024/03/12 11:01:36;;;;;;;4.37;1.70;;;;;;;10.31;100.00;96244.41;5038973;28;20225;-68
2024/03/12 11:04:05;;;;;;;3.80;1.20;;;;;;;10.25;100.00;96247.72;5038659;28;20248;-67
2024/03/12 11:06:36;;;;;;;1.40;1.00;;;;;;;10.34;100.00;96244.03;5038326;28;20201;-67
2024/03/12 11:09:04;;;;;;;0.60;0.50;;;;;;;10.08;100.00;96242.72;5038817;28;21045;-67
2024/03/12 11:11:31;;;;;;;1.27;0.53;;;;;;;10.06;100.00;96248.16;5038690;28;20663;-67
2024/03/12 11:14:01;;;;;;;0.90;0.70;;;;;;;9.82;100.00;96240.38;5038869;28;20228;-67
2024/03/12 11:16:31;;;;;;;1.07;0.83;;;;;;;10.16;100.00;96245.34;5039571;28;20228;-68
2024/03/12 11:18:58;;;;;;;0.90;0.80;;;;;;;10.24;100.00;96248.72;5038545;28;20209;-68
2024/03/12 11:21:34;;;;;;;1.00;0.67;;;;;;;10.41;100.00;96248.44;5038026;28;20247;-67
2024/03/12 11:24:01;;;;;;;2.50;1.20;;;;;;;10.10;100.00;96249.47;5039310;28;20232;-67
2024/03/12 11:26:52;;;;;;;3.03;0.90;;;;;;;10.82;100.00;96247.13;5039394;28;20205;-69
2024/03/12 11:29:18;;;;;;;2.23;1.33;;;;;;;10.54;100.00;96253.94;5037750;28;20213;-68
2024/03/12 11:31:45;;;;;;;2.63;1.20;;;;;;;10.50;100.00;96249.19;5038317;28;20201;-68
2024/03/12 11:34:30;;;;;;;2.27;1.40;;;;;;;10.34;100.00;96252.75;5037175;28;20224;-68
2024/03/12 11:37:13;;;;;;;0.57;0.53;;;;;;;10.44;100.00;96248.09;5036981;28;20209;-68
2024/03/12 11:39:39;;;;;;;1.60;1.00;;;;;;;10.28;100.00;96251.84;5037472;28;20247;-68